sensor_id;sensor_type;location;lat;lon;timestamp;temperature;humidity
40538;DHT22;27925;41.874;12.526;2022-09-03T00:01:35;24.90;68.40
40538;DHT22;27925;41.874;12.526;2022-09-03T00:04:09;24.90;69.40
40538;DHT22;27925;41.874;12.526;2022-09-03T00:07:02;24.90;69.90
40538;DHT22;27925;41.874;12.526;2022-09-03T00:09:40;24.80;70.60
40538;DHT22;27925;41.874;12.526;2022-09-03T00:12:18;24.70;70.80
40538;DHT22;27925;41.874;12.526;2022-09-03T00:14:52;24.70;70.40
40538;DHT22;27925;41.874;12.526;2022-09-03T00:17:23;24.60;72.10
40538;DHT22;27925;41.874;12.526;2022-09-03T00:22:55;24.60;71.50
40538;DHT22;27925;41.874;12.526;2022-09-03T00:28:33;24.50;71.80
40538;DHT22;27925;41.874;12.526;2022-09-03T00:31:35;24.40;72.60
40538;DHT22;27925;41.874;12.526;2022-09-03T00:36:55;24.50;71.80
40538;DHT22;27925;41.874;12.526;2022-09-03T00:39:24;24.50;72.80
40538;DHT22;27925;41.874;12.526;2022-09-03T00:48:05;24.50;72.40
40538;DHT22;27925;41.874;12.526;2022-09-03T00:56:32;24.50;72.60
40538;DHT22;27925;41.874;12.526;2022-09-03T01:02:12;24.50;72.70
40538;DHT22;27925;41.874;12.526;2022-09-03T01:04:52;24.50;73.10
40538;DHT22;27925;41.874;12.526;2022-09-03T01:10:06;24.50;73.20
40538;DHT22;27925;41.874;12.526;2022-09-03T01:12:51;24.50;72.20
40538;DHT22;27925;41.874;12.526;2022-09-03T01:18:27;24.50;71.80
40538;DHT22;27925;41.874;12.526;2022-09-03T01:26:51;24.40;71.30
40538;DHT22;27925;41.874;12.526;2022-09-03T01:29:33;24.40;71.80
40538;DHT22;27925;41.874;12.526;2022-09-03T01:32:13;24.40;70.60
40538;DHT22;27925;41.874;12.526;2022-09-03T01:35:04;24.30;70.20
40538;DHT22;27925;41.874;12.526;2022-09-03T01:40:20;24.20;70.90
40538;DHT22;27925;41.874;12.526;2022-09-03T01:45:57;24.20;69.90
40538;DHT22;27925;41.874;12.526;2022-09-03T01:48:44;24.20;70.50
40538;DHT22;27925;41.874;12.526;2022-09-03T01:51:24;24.20;70.60
40538;DHT22;27925;41.874;12.526;2022-09-03T01:54:23;24.20;70.00
40538;DHT22;27925;41.874;12.526;2022-09-03T02:02:22;24.20;70.20
40538;DHT22;27925;41.874;12.526;2022-09-03T02:05:02;24.20;71.30
40538;DHT22;27925;41.874;12.526;2022-09-03T02:07:38;24.10;71.20
40538;DHT22;27925;41.874;12.526;2022-09-03T02:10:52;24.10;70.70
40538;DHT22;27925;41.874;12.526;2022-09-03T02:13:04;24.00;71.40
40538;DHT22;27925;41.874;12.526;2022-09-03T02:15:31;24.00;70.80
40538;DHT22;27925;41.874;12.526;2022-09-03T02:18:01;23.90;71.30
40538;DHT22;27925;41.874;12.526;2022-09-03T02:20:29;23.90;71.40
40538;DHT22;27925;41.874;12.526;2022-09-03T02:22:56;23.80;71.40
40538;DHT22;27925;41.874;12.526;2022-09-03T02:25:25;23.80;71.50
40538;DHT22;27925;41.874;12.526;2022-09-03T02:27:54;23.90;71.60
40538;DHT22;27925;41.874;12.526;2022-09-03T02:30:19;23.90;71.50
40538;DHT22;27925;41.874;12.526;2022-09-03T02:32:45;23.90;71.30
40538;DHT22;27925;41.874;12.526;2022-09-03T02:35:12;23.90;71.40
40538;DHT22;27925;41.874;12.526;2022-09-03T02:37:37;23.90;71.40
40538;DHT22;27925;41.874;12.526;2022-09-03T02:40:03;23.80;71.20
40538;DHT22;27925;41.874;12.526;2022-09-03T02:42:37;23.80;71.20
40538;DHT22;27925;41.874;12.526;2022-09-03T02:45:15;23.80;70.50
40538;DHT22;27925;41.874;12.526;2022-09-03T02:47:44;23.90;70.50
40538;DHT22;27925;41.874;12.526;2022-09-03T02:50:12;23.80;71.00
40538;DHT22;27925;41.874;12.526;2022-09-03T02:52:38;23.80;70.80
40538;DHT22;27925;41.874;12.526;2022-09-03T02:55:03;23.80;70.90
40538;DHT22;27925;41.874;12.526;2022-09-03T02:57:35;23.90;70.90
40538;DHT22;27925;41.874;12.526;2022-09-03T03:00:01;23.90;71.10
40538;DHT22;27925;41.874;12.526;2022-09-03T03:02:29;23.90;71.00
40538;DHT22;27925;41.874;12.526;2022-09-03T03:04:55;23.80;71.20
40538;DHT22;27925;41.874;12.526;2022-09-03T03:07:21;23.80;71.40
40538;DHT22;27925;41.874;12.526;2022-09-03T03:09:46;23.80;71.30
40538;DHT22;27925;41.874;12.526;2022-09-03T03:12:12;23.80;71.40
40538;DHT22;27925;41.874;12.526;2022-09-03T03:14:38;23.80;71.70
40538;DHT22;27925;41.874;12.526;2022-09-03T03:17:04;23.80;71.70
40538;DHT22;27925;41.874;12.526;2022-09-03T03:19:29;23.70;71.50
40538;DHT22;27925;41.874;12.526;2022-09-03T03:21:55;23.70;71.60
40538;DHT22;27925;41.874;12.526;2022-09-03T03:24:21;23.70;71.70
40538;DHT22;27925;41.874;12.526;2022-09-03T03:26:46;23.70;71.80
40538;DHT22;27925;41.874;12.526;2022-09-03T03:29:16;23.70;71.90
40538;DHT22;27925;41.874;12.526;2022-09-03T03:31:46;23.60;72.00
40538;DHT22;27925;41.874;12.526;2022-09-03T03:34:12;23.60;71.70
40538;DHT22;27925;41.874;12.526;2022-09-03T03:36:37;23.60;72.20
40538;DHT22;27925;41.874;12.526;2022-09-03T03:39:05;23.60;72.50
40538;DHT22;27925;41.874;12.526;2022-09-03T03:41:35;23.50;72.40
40538;DHT22;27925;41.874;12.526;2022-09-03T03:44:03;23.50;72.70
40538;DHT22;27925;41.874;12.526;2022-09-03T03:46:34;23.50;72.90
40538;DHT22;27925;41.874;12.526;2022-09-03T03:49:01;23.50;73.00
40538;DHT22;27925;41.874;12.526;2022-09-03T03:51:27;23.50;73.20
40538;DHT22;27925;41.874;12.526;2022-09-03T03:53:54;23.50;73.20
40538;DHT22;27925;41.874;12.526;2022-09-03T03:56:22;23.50;73.40
40538;DHT22;27925;41.874;12.526;2022-09-03T03:58:49;23.60;73.50
40538;DHT22;27925;41.874;12.526;2022-09-03T04:01:18;23.60;73.60
40538;DHT22;27925;41.874;12.526;2022-09-03T04:03:44;23.60;73.60
40538;DHT22;27925;41.874;12.526;2022-09-03T04:06:12;23.60;73.70
40538;DHT22;27925;41.874;12.526;2022-09-03T04:08:40;23.70;73.60
40538;DHT22;27925;41.874;12.526;2022-09-03T04:11:13;23.70;73.80
40538;DHT22;27925;41.874;12.526;2022-09-03T04:13:40;23.70;73.90
40538;DHT22;27925;41.874;12.526;2022-09-03T04:16:14;23.70;73.80
40538;DHT22;27925;41.874;12.526;2022-09-03T04:18:42;23.70;73.60
40538;DHT22;27925;41.874;12.526;2022-09-03T04:21:11;23.70;73.70
40538;DHT22;27925;41.874;12.526;2022-09-03T04:23:41;23.70;73.80
40538;DHT22;27925;41.874;12.526;2022-09-03T04:26:09;23.70;74.20
40538;DHT22;27925;41.874;12.526;2022-09-03T04:28:38;23.70;74.30
40538;DHT22;27925;41.874;12.526;2022-09-03T04:31:05;23.70;74.30
40538;DHT22;27925;41.874;12.526;2022-09-03T04:33:33;23.70;74.70
40538;DHT22;27925;41.874;12.526;2022-09-03T04:36:09;23.70;74.60
40538;DHT22;27925;41.874;12.526;2022-09-03T04:38:38;23.70;74.50
40538;DHT22;27925;41.874;12.526;2022-09-03T04:41:05;23.70;75.00
40538;DHT22;27925;41.874;12.526;2022-09-03T04:43:31;23.60;74.90
40538;DHT22;27925;41.874;12.526;2022-09-03T04:46:02;23.70;75.00
40538;DHT22;27925;41.874;12.526;2022-09-03T04:48:31;23.70;75.20
40538;DHT22;27925;41.874;12.526;2022-09-03T04:53:36;23.60;75.40
40538;DHT22;27925;41.874;12.526;2022-09-03T04:56:10;23.60;75.70
40538;DHT22;27925;41.874;12.526;2022-09-03T04:58:36;23.60;75.00
40538;DHT22;27925;41.874;12.526;2022-09-03T05:01:10;23.60;75.20
40538;DHT22;27925;41.874;12.526;2022-09-03T05:03:36;23.70;75.10
40538;DHT22;27925;41.874;12.526;2022-09-03T05:06:03;23.70;75.40
40538;DHT22;27925;41.874;12.526;2022-09-03T05:08:30;23.70;75.20
40538;DHT22;27925;41.874;12.526;2022-09-03T05:10:58;23.80;75.10
40538;DHT22;27925;41.874;12.526;2022-09-03T05:13:28;23.80;75.10
40538;DHT22;27925;41.874;12.526;2022-09-03T05:16:01;23.80;75.80
40538;DHT22;27925;41.874;12.526;2022-09-03T05:18:29;23.90;75.10
40538;DHT22;27925;41.874;12.526;2022-09-03T05:20:59;23.90;74.70
40538;DHT22;27925;41.874;12.526;2022-09-03T05:23:26;24.00;74.60
40538;DHT22;27925;41.874;12.526;2022-09-03T05:26:01;24.00;74.50
40538;DHT22;27925;41.874;12.526;2022-09-03T05:28:28;24.10;74.60
40538;DHT22;27925;41.874;12.526;2022-09-03T05:31:20;24.20;74.40
40538;DHT22;27925;41.874;12.526;2022-09-03T05:33:50;24.20;74.20
40538;DHT22;27925;41.874;12.526;2022-09-03T05:36:19;24.30;73.80
40538;DHT22;27925;41.874;12.526;2022-09-03T05:38:46;24.50;73.60
40538;DHT22;27925;41.874;12.526;2022-09-03T05:41:13;24.50;73.50
40538;DHT22;27925;41.874;12.526;2022-09-03T05:43:39;24.60;73.40
40538;DHT22;27925;41.874;12.526;2022-09-03T05:46:08;24.60;73.30
40538;DHT22;27925;41.874;12.526;2022-09-03T05:48:37;24.50;73.50
40538;DHT22;27925;41.874;12.526;2022-09-03T05:51:17;24.60;73.60
40538;DHT22;27925;41.874;12.526;2022-09-03T05:53:51;24.50;73.50
40538;DHT22;27925;41.874;12.526;2022-09-03T05:56:18;24.40;73.50
40538;DHT22;27925;41.874;12.526;2022-09-03T05:58:49;24.30;73.80
40538;DHT22;27925;41.874;12.526;2022-09-03T06:01:26;24.30;73.90
40538;DHT22;27925;41.874;12.526;2022-09-03T06:06:29;24.10;74.30
40538;DHT22;27925;41.874;12.526;2022-09-03T06:08:58;24.10;74.40
40538;DHT22;27925;41.874;12.526;2022-09-03T06:11:25;24.10;74.60
40538;DHT22;27925;41.874;12.526;2022-09-03T06:13:56;24.00;74.60
40538;DHT22;27925;41.874;12.526;2022-09-03T06:16:24;24.00;75.00
40538;DHT22;27925;41.874;12.526;2022-09-03T06:18:50;24.10;75.00
40538;DHT22;27925;41.874;12.526;2022-09-03T06:21:16;24.10;74.90
40538;DHT22;27925;41.874;12.526;2022-09-03T06:23:41;24.10;74.90
40538;DHT22;27925;41.874;12.526;2022-09-03T06:26:09;24.20;74.90
40538;DHT22;27925;41.874;12.526;2022-09-03T06:28:37;24.20;74.90
40538;DHT22;27925;41.874;12.526;2022-09-03T06:31:05;24.10;74.60
40538;DHT22;27925;41.874;12.526;2022-09-03T06:33:33;24.20;74.80
40538;DHT22;27925;41.874;12.526;2022-09-03T06:36:00;24.20;74.50
40538;DHT22;27925;41.874;12.526;2022-09-03T06:38:28;24.40;74.40
40538;DHT22;27925;41.874;12.526;2022-09-03T06:40:58;24.40;74.20
40538;DHT22;27925;41.874;12.526;2022-09-03T06:43:29;24.50;73.80
40538;DHT22;27925;41.874;12.526;2022-09-03T06:48:23;24.60;73.60
40538;DHT22;27925;41.874;12.526;2022-09-03T06:51:00;24.70;74.00
40538;DHT22;27925;41.874;12.526;2022-09-03T06:53:29;24.70;72.50
40538;DHT22;27925;41.874;12.526;2022-09-03T06:55:58;24.70;73.10
40538;DHT22;27925;41.874;12.526;2022-09-03T06:58:28;24.80;72.20
40538;DHT22;27925;41.874;12.526;2022-09-03T07:01:01;24.90;73.60
40538;DHT22;27925;41.874;12.526;2022-09-03T07:03:27;25.00;72.50
40538;DHT22;27925;41.874;12.526;2022-09-03T07:05:53;25.30;71.90
40538;DHT22;27925;41.874;12.526;2022-09-03T07:08:18;25.30;71.10
40538;DHT22;27925;41.874;12.526;2022-09-03T07:11:06;25.50;71.30
40538;DHT22;27925;41.874;12.526;2022-09-03T07:13:38;25.50;70.70
40538;DHT22;27925;41.874;12.526;2022-09-03T07:16:09;25.60;70.60
40538;DHT22;27925;41.874;12.526;2022-09-03T07:18:35;25.80;70.60
40538;DHT22;27925;41.874;12.526;2022-09-03T07:21:05;25.90;70.10
40538;DHT22;27925;41.874;12.526;2022-09-03T07:23:32;26.10;68.70
40538;DHT22;27925;41.874;12.526;2022-09-03T07:26:00;26.10;69.40
40538;DHT22;27925;41.874;12.526;2022-09-03T07:28:27;26.10;69.10
40538;DHT22;27925;41.874;12.526;2022-09-03T07:30:54;26.00;69.30
40538;DHT22;27925;41.874;12.526;2022-09-03T07:33:24;26.00;69.10
40538;DHT22;27925;41.874;12.526;2022-09-03T07:35:51;26.10;69.50
40538;DHT22;27925;41.874;12.526;2022-09-03T07:38:17;26.10;69.50
40538;DHT22;27925;41.874;12.526;2022-09-03T07:40:44;26.10;69.50
40538;DHT22;27925;41.874;12.526;2022-09-03T07:43:12;26.20;69.80
40538;DHT22;27925;41.874;12.526;2022-09-03T07:45:41;26.30;69.70
40538;DHT22;27925;41.874;12.526;2022-09-03T07:48:10;26.30;69.60
40538;DHT22;27925;41.874;12.526;2022-09-03T07:50:37;26.30;69.80
40538;DHT22;27925;41.874;12.526;2022-09-03T07:53:04;26.30;69.20
40538;DHT22;27925;41.874;12.526;2022-09-03T07:55:30;26.30;70.50
40538;DHT22;27925;41.874;12.526;2022-09-03T07:57:56;26.30;70.60
40538;DHT22;27925;41.874;12.526;2022-09-03T08:00:24;26.30;71.30
40538;DHT22;27925;41.874;12.526;2022-09-03T08:02:53;26.30;71.60
40538;DHT22;27925;41.874;12.526;2022-09-03T08:05:19;26.30;71.90
40538;DHT22;27925;41.874;12.526;2022-09-03T08:07:46;26.30;72.10
40538;DHT22;27925;41.874;12.526;2022-09-03T08:10:13;26.30;72.40
40538;DHT22;27925;41.874;12.526;2022-09-03T08:12:39;26.30;72.70
40538;DHT22;27925;41.874;12.526;2022-09-03T08:15:06;26.40;72.80
40538;DHT22;27925;41.874;12.526;2022-09-03T08:17:32;26.40;72.60
40538;DHT22;27925;41.874;12.526;2022-09-03T08:19:58;26.40;72.80
40538;DHT22;27925;41.874;12.526;2022-09-03T08:22:25;26.50;73.00
40538;DHT22;27925;41.874;12.526;2022-09-03T08:24:51;26.50;72.80
40538;DHT22;27925;41.874;12.526;2022-09-03T08:27:19;26.60;73.00
40538;DHT22;27925;41.874;12.526;2022-09-03T08:29:48;26.60;72.80
40538;DHT22;27925;41.874;12.526;2022-09-03T08:32:14;26.60;72.80
40538;DHT22;27925;41.874;12.526;2022-09-03T08:34:40;26.60;73.00
40538;DHT22;27925;41.874;12.526;2022-09-03T08:37:06;26.50;73.50
40538;DHT22;27925;41.874;12.526;2022-09-03T08:39:34;26.50;73.60
40538;DHT22;27925;41.874;12.526;2022-09-03T08:44:45;26.50;73.90
40538;DHT22;27925;41.874;12.526;2022-09-03T08:52:32;26.50;74.40
40538;DHT22;27925;41.874;12.526;2022-09-03T08:55:15;26.40;74.70
40538;DHT22;27925;41.874;12.526;2022-09-03T08:57:49;26.40;75.50
40538;DHT22;27925;41.874;12.526;2022-09-03T09:00:16;26.40;75.40
40538;DHT22;27925;41.874;12.526;2022-09-03T09:03:05;26.50;76.00
40538;DHT22;27925;41.874;12.526;2022-09-03T09:05:53;26.50;75.50
40538;DHT22;27925;41.874;12.526;2022-09-03T09:11:17;26.60;75.70
40538;DHT22;27925;41.874;12.526;2022-09-03T09:13:58;26.60;76.40
40538;DHT22;27925;41.874;12.526;2022-09-03T09:17:23;26.60;76.30
40538;DHT22;27925;41.874;12.526;2022-09-03T09:20:18;26.50;76.60
40538;DHT22;27925;41.874;12.526;2022-09-03T09:22:55;26.50;77.00
40538;DHT22;27925;41.874;12.526;2022-09-03T09:25:23;26.50;77.60
40538;DHT22;27925;41.874;12.526;2022-09-03T09:28:12;26.30;78.20
40538;DHT22;27925;41.874;12.526;2022-09-03T09:30:41;26.20;78.70
40538;DHT22;27925;41.874;12.526;2022-09-03T09:33:07;26.00;79.10
40538;DHT22;27925;41.874;12.526;2022-09-03T09:35:32;25.80;80.00
40538;DHT22;27925;41.874;12.526;2022-09-03T09:37:58;25.70;81.00
40538;DHT22;27925;41.874;12.526;2022-09-03T09:40:34;25.60;81.70
40538;DHT22;27925;41.874;12.526;2022-09-03T09:43:10;25.50;82.70
40538;DHT22;27925;41.874;12.526;2022-09-03T09:45:38;25.50;83.20
40538;DHT22;27925;41.874;12.526;2022-09-03T09:48:20;25.50;82.40
40538;DHT22;27925;41.874;12.526;2022-09-03T09:53:31;25.40;82.90
40538;DHT22;27925;41.874;12.526;2022-09-03T09:55:57;25.40;83.60
40538;DHT22;27925;41.874;12.526;2022-09-03T09:58:26;25.40;83.50
40538;DHT22;27925;41.874;12.526;2022-09-03T10:01:10;25.50;82.70
40538;DHT22;27925;41.874;12.526;2022-09-03T10:03:53;25.60;82.90
40538;DHT22;27925;41.874;12.526;2022-09-03T10:06:23;25.80;82.30
40538;DHT22;27925;41.874;12.526;2022-09-03T10:09:10;25.80;82.30
40538;DHT22;27925;41.874;12.526;2022-09-03T10:11:38;25.90;82.50
40538;DHT22;27925;41.874;12.526;2022-09-03T10:14:10;26.00;82.00
40538;DHT22;27925;41.874;12.526;2022-09-03T10:16:40;26.10;81.90
40538;DHT22;27925;41.874;12.526;2022-09-03T10:19:59;26.10;81.60
40538;DHT22;27925;41.874;12.526;2022-09-03T10:22:11;26.30;81.90
40538;DHT22;27925;41.874;12.526;2022-09-03T10:24:55;26.50;80.90
40538;DHT22;27925;41.874;12.526;2022-09-03T10:27:22;26.60;80.50
40538;DHT22;27925;41.874;12.526;2022-09-03T10:29:48;26.70;80.00
40538;DHT22;27925;41.874;12.526;2022-09-03T10:35:44;27.10;79.20
40538;DHT22;27925;41.874;12.526;2022-09-03T10:40:53;27.20;76.80
40538;DHT22;27925;41.874;12.526;2022-09-03T10:43:38;27.30;77.10
40538;DHT22;27925;41.874;12.526;2022-09-03T10:46:16;27.50;75.70
40538;DHT22;27925;41.874;12.526;2022-09-03T10:51:42;27.90;73.70
40538;DHT22;27925;41.874;12.526;2022-09-03T10:54:31;28.00;72.80
40538;DHT22;27925;41.874;12.526;2022-09-03T11:00:03;28.40;72.00
40538;DHT22;27925;41.874;12.526;2022-09-03T11:11:40;28.50;69.50
40538;DHT22;27925;41.874;12.526;2022-09-03T11:14:10;28.60;69.00
40538;DHT22;27925;41.874;12.526;2022-09-03T11:16:44;28.40;69.10
40538;DHT22;27925;41.874;12.526;2022-09-03T11:19:16;28.40;69.20
40538;DHT22;27925;41.874;12.526;2022-09-03T11:21:48;28.60;68.80
40538;DHT22;27925;41.874;12.526;2022-09-03T11:24:24;28.80;68.30
40538;DHT22;27925;41.874;12.526;2022-09-03T11:27:01;28.90;67.00
40538;DHT22;27925;41.874;12.526;2022-09-03T11:32:17;29.30;65.30
40538;DHT22;27925;41.874;12.526;2022-09-03T11:34:48;29.20;65.00
40538;DHT22;27925;41.874;12.526;2022-09-03T11:37:20;29.30;65.00
40538;DHT22;27925;41.874;12.526;2022-09-03T11:42:29;29.20;65.30
40538;DHT22;27925;41.874;12.526;2022-09-03T11:45:21;29.20;65.00
40538;DHT22;27925;41.874;12.526;2022-09-03T11:47:49;29.10;65.30
40538;DHT22;27925;41.874;12.526;2022-09-03T11:50:22;29.00;64.00
40538;DHT22;27925;41.874;12.526;2022-09-03T11:52:50;29.10;64.20
40538;DHT22;27925;41.874;12.526;2022-09-03T11:55:30;29.10;64.50
40538;DHT22;27925;41.874;12.526;2022-09-03T11:57:56;29.10;64.30
40538;DHT22;27925;41.874;12.526;2022-09-03T12:00:23;29.10;64.40
40538;DHT22;27925;41.874;12.526;2022-09-03T12:02:59;29.10;64.40
40538;DHT22;27925;41.874;12.526;2022-09-03T12:05:50;29.10;64.00
40538;DHT22;27925;41.874;12.526;2022-09-03T12:11:47;29.50;63.00
40538;DHT22;27925;41.874;12.526;2022-09-03T12:14:26;29.80;61.20
40538;DHT22;27925;41.874;12.526;2022-09-03T12:19:48;30.00;60.70
40538;DHT22;27925;41.874;12.526;2022-09-03T12:22:16;30.20;59.90
40538;DHT22;27925;41.874;12.526;2022-09-03T12:24:43;30.30;59.30
40538;DHT22;27925;41.874;12.526;2022-09-03T12:27:15;30.40;58.20
40538;DHT22;27925;41.874;12.526;2022-09-03T12:32:42;30.40;57.90
40538;DHT22;27925;41.874;12.526;2022-09-03T12:35:18;30.50;57.00
40538;DHT22;27925;41.874;12.526;2022-09-03T12:37:46;30.60;56.50
40538;DHT22;27925;41.874;12.526;2022-09-03T12:40:21;30.60;54.80
40538;DHT22;27925;41.874;12.526;2022-09-03T12:42:49;30.60;55.10
40538;DHT22;27925;41.874;12.526;2022-09-03T12:45:26;30.60;56.70
40538;DHT22;27925;41.874;12.526;2022-09-03T12:47:52;30.50;56.70
40538;DHT22;27925;41.874;12.526;2022-09-03T12:50:23;30.50;56.10
40538;DHT22;27925;41.874;12.526;2022-09-03T12:52:58;30.50;54.20
40538;DHT22;27925;41.874;12.526;2022-09-03T12:55:41;30.30;53.80
40538;DHT22;27925;41.874;12.526;2022-09-03T12:58:33;30.20;53.90
40538;DHT22;27925;41.874;12.526;2022-09-03T13:01:08;30.50;53.70
40538;DHT22;27925;41.874;12.526;2022-09-03T13:03:56;30.70;53.60
40538;DHT22;27925;41.874;12.526;2022-09-03T13:06:27;30.90;53.20
40538;DHT22;27925;41.874;12.526;2022-09-03T13:08:58;31.10;54.50
40538;DHT22;27925;41.874;12.526;2022-09-03T13:11:31;31.30;53.90
40538;DHT22;27925;41.874;12.526;2022-09-03T13:14:04;31.30;51.80
40538;DHT22;27925;41.874;12.526;2022-09-03T13:25:34;31.90;51.40
40538;DHT22;27925;41.874;12.526;2022-09-03T13:28:36;31.80;50.10
40538;DHT22;27925;41.874;12.526;2022-09-03T13:31:37;31.70;50.00
40538;DHT22;27925;41.874;12.526;2022-09-03T13:34:10;31.60;50.20
40538;DHT22;27925;41.874;12.526;2022-09-03T13:36:46;31.90;51.40
40538;DHT22;27925;41.874;12.526;2022-09-03T13:39:25;32.10;50.90
40538;DHT22;27925;41.874;12.526;2022-09-03T13:42:02;32.10;50.60
40538;DHT22;27925;41.874;12.526;2022-09-03T13:45:34;32.20;49.70
40538;DHT22;27925;41.874;12.526;2022-09-03T13:47:44;32.00;49.50
40538;DHT22;27925;41.874;12.526;2022-09-03T13:50:44;32.00;50.50
40538;DHT22;27925;41.874;12.526;2022-09-03T13:59:07;32.30;48.70
40538;DHT22;27925;41.874;12.526;2022-09-03T14:07:50;32.50;46.70
40538;DHT22;27925;41.874;12.526;2022-09-03T14:19:00;32.30;48.90
40538;DHT22;27925;41.874;12.526;2022-09-03T14:21:29;32.40;47.80
40538;DHT22;27925;41.874;12.526;2022-09-03T14:27:00;32.20;48.40
40538;DHT22;27925;41.874;12.526;2022-09-03T14:29:31;32.10;49.90
40538;DHT22;27925;41.874;12.526;2022-09-03T14:32:10;32.00;50.10
40538;DHT22;27925;41.874;12.526;2022-09-03T14:40:14;32.40;48.70
40538;DHT22;27925;41.874;12.526;2022-09-03T14:45:56;32.30;49.70
40538;DHT22;27925;41.874;12.526;2022-09-03T14:59:39;31.10;53.60
40538;DHT22;27925;41.874;12.526;2022-09-03T15:07:58;31.00;53.00
40538;DHT22;27925;41.874;12.526;2022-09-03T15:10:54;30.80;54.80
40538;DHT22;27925;41.874;12.526;2022-09-03T15:13:34;30.60;53.90
40538;DHT22;27925;41.874;12.526;2022-09-03T15:19:09;30.30;54.00
40538;DHT22;27925;41.874;12.526;2022-09-03T15:26:55;30.00;55.60
40538;DHT22;27925;41.874;12.526;2022-09-03T15:29:41;29.90;56.10
40538;DHT22;27925;41.874;12.526;2022-09-03T15:35:14;29.70;56.90
40538;DHT22;27925;41.874;12.526;2022-09-03T15:38:00;29.60;57.10
40538;DHT22;27925;41.874;12.526;2022-09-03T15:40:34;29.50;57.10
40538;DHT22;27925;41.874;12.526;2022-09-03T15:45:54;29.40;58.10
40538;DHT22;27925;41.874;12.526;2022-09-03T15:48:49;29.40;58.90
40538;DHT22;27925;41.874;12.526;2022-09-03T15:51:35;29.30;58.30
40538;DHT22;27925;41.874;12.526;2022-09-03T15:54:41;29.20;58.50
40538;DHT22;27925;41.874;12.526;2022-09-03T15:57:32;29.20;59.30
40538;DHT22;27925;41.874;12.526;2022-09-03T16:00:09;29.20;59.40
40538;DHT22;27925;41.874;12.526;2022-09-03T16:03:01;29.10;59.80
40538;DHT22;27925;41.874;12.526;2022-09-03T16:05:46;29.00;60.70
40538;DHT22;27925;41.874;12.526;2022-09-03T16:11:00;29.00;61.00
40538;DHT22;27925;41.874;12.526;2022-09-03T16:16:24;29.00;62.00
40538;DHT22;27925;41.874;12.526;2022-09-03T16:24:52;29.00;62.20
40538;DHT22;27925;41.874;12.526;2022-09-03T16:27:27;29.10;62.10
40538;DHT22;27925;41.874;12.526;2022-09-03T16:30:20;29.10;62.10
40538;DHT22;27925;41.874;12.526;2022-09-03T17:00:22;29.10;64.70
40538;DHT22;27925;41.874;12.526;2022-09-03T17:03:21;29.10;65.20
40538;DHT22;27925;41.874;12.526;2022-09-03T17:06:07;29.00;65.00
40538;DHT22;27925;41.874;12.526;2022-09-03T17:25:27;28.60;66.30
40538;DHT22;27925;41.874;12.526;2022-09-03T17:31:01;28.50;66.90
40538;DHT22;27925;41.874;12.526;2022-09-03T17:33:51;28.40;66.90
40538;DHT22;27925;41.874;12.526;2022-09-03T17:36:28;28.30;66.90
40538;DHT22;27925;41.874;12.526;2022-09-03T17:39:08;28.30;67.20
40538;DHT22;27925;41.874;12.526;2022-09-03T17:49:49;28.10;68.80
40538;DHT22;27925;41.874;12.526;2022-09-03T17:54:59;28.00;69.20
40538;DHT22;27925;41.874;12.526;2022-09-03T17:57:40;27.90;69.70
40538;DHT22;27925;41.874;12.526;2022-09-03T18:00:19;27.90;70.00
40538;DHT22;27925;41.874;12.526;2022-09-03T18:03:21;27.90;70.20
40538;DHT22;27925;41.874;12.526;2022-09-03T18:05:57;27.80;70.30
40538;DHT22;27925;41.874;12.526;2022-09-03T18:09:04;27.80;70.50
40538;DHT22;27925;41.874;12.526;2022-09-03T18:11:37;27.80;70.00
40538;DHT22;27925;41.874;12.526;2022-09-03T18:17:08;27.70;70.30
40538;DHT22;27925;41.874;12.526;2022-09-03T18:19:41;27.70;71.10
40538;DHT22;27925;41.874;12.526;2022-09-03T18:23:04;27.70;71.60
40538;DHT22;27925;41.874;12.526;2022-09-03T18:25:56;27.60;70.50
40538;DHT22;27925;41.874;12.526;2022-09-03T18:28:47;27.60;71.60
40538;DHT22;27925;41.874;12.526;2022-09-03T18:31:33;27.60;71.80
40538;DHT22;27925;41.874;12.526;2022-09-03T18:34:28;27.50;71.40
40538;DHT22;27925;41.874;12.526;2022-09-03T18:37:20;27.50;71.20
40538;DHT22;27925;41.874;12.526;2022-09-03T18:40:07;27.40;72.00
40538;DHT22;27925;41.874;12.526;2022-09-03T18:42:58;27.40;71.90
40538;DHT22;27925;41.874;12.526;2022-09-03T18:45:51;27.40;71.30
40538;DHT22;27925;41.874;12.526;2022-09-03T18:48:45;27.40;72.50
40538;DHT22;27925;41.874;12.526;2022-09-03T18:55:07;27.40;71.60
40538;DHT22;27925;41.874;12.526;2022-09-03T19:01:07;27.30;72.00
40538;DHT22;27925;41.874;12.526;2022-09-03T19:04:10;27.30;73.00
40538;DHT22;27925;41.874;12.526;2022-09-03T19:07:10;27.30;73.10
40538;DHT22;27925;41.874;12.526;2022-09-03T19:10:02;27.30;73.50
40538;DHT22;27925;41.874;12.526;2022-09-03T19:16:06;27.20;72.60
40538;DHT22;27925;41.874;12.526;2022-09-03T19:22:11;27.20;73.20
40538;DHT22;27925;41.874;12.526;2022-09-03T19:25:11;27.20;74.50
40538;DHT22;27925;41.874;12.526;2022-09-03T19:31:17;27.10;74.30
40538;DHT22;27925;41.874;12.526;2022-09-03T19:37:36;27.00;75.30
40538;DHT22;27925;41.874;12.526;2022-09-03T19:40:52;27.00;76.50
40538;DHT22;27925;41.874;12.526;2022-09-03T19:49:28;26.80;76.30
40538;DHT22;27925;41.874;12.526;2022-09-03T19:55:20;26.80;77.00
40538;DHT22;27925;41.874;12.526;2022-09-03T19:58:07;26.80;77.70
40538;DHT22;27925;41.874;12.526;2022-09-03T20:00:53;26.80;77.90
40538;DHT22;27925;41.874;12.526;2022-09-03T20:03:37;26.70;78.20
40538;DHT22;27925;41.874;12.526;2022-09-03T20:06:22;26.80;78.30
40538;DHT22;27925;41.874;12.526;2022-09-03T20:09:09;26.70;78.30
40538;DHT22;27925;41.874;12.526;2022-09-03T20:11:56;26.70;78.60
40538;DHT22;27925;41.874;12.526;2022-09-03T20:14:24;26.70;78.70
40538;DHT22;27925;41.874;12.526;2022-09-03T20:23:09;26.70;79.50
40538;DHT22;27925;41.874;12.526;2022-09-03T20:26:03;26.60;79.40
40538;DHT22;27925;41.874;12.526;2022-09-03T20:35:23;26.50;79.60
40538;DHT22;27925;41.874;12.526;2022-09-03T20:37:48;26.50;79.50
40538;DHT22;27925;41.874;12.526;2022-09-03T20:51:25;26.50;79.00
40538;DHT22;27925;41.874;12.526;2022-09-03T20:54:10;26.50;78.60
40538;DHT22;27925;41.874;12.526;2022-09-03T21:00:03;26.50;78.50
40538;DHT22;27925;41.874;12.526;2022-09-03T21:16:50;26.60;77.60
40538;DHT22;27925;41.874;12.526;2022-09-03T21:25:04;26.50;77.60
40538;DHT22;27925;41.874;12.526;2022-09-03T21:27:40;26.50;77.80